createdAt,value
2023-02-01T00:01:08.369Z,4.70
2023-02-01T00:03:35.398Z,4.70
2023-02-01T00:06:02.780Z,4.70
2023-02-01T00:08:30.258Z,4.60
2023-02-01T00:11:05.873Z,4.60
2023-02-01T00:13:34.354Z,4.60
2023-02-01T00:16:19.333Z,4.60
2023-02-01T00:18:48.098Z,4.60
2023-02-01T00:21:16.809Z,4.60
2023-02-01T00:23:43.912Z,4.60
2023-02-01T00:26:26.868Z,4.70
2023-02-01T00:28:54.679Z,4.70
2023-02-01T00:31:21.863Z,4.70
2023-02-01T00:33:49.912Z,4.70
2023-02-01T00:36:17.351Z,4.80
2023-02-01T00:38:44.356Z,4.80
2023-02-01T00:41:17.097Z,4.80
2023-02-01T00:43:44.562Z,4.90
2023-02-01T00:46:12.521Z,5.00
2023-02-01T00:48:39.964Z,5.00
2023-02-01T00:51:09.356Z,5.00
2023-02-01T00:53:36.757Z,5.00
2023-02-01T00:56:04.448Z,5.10
2023-02-01T00:58:31.521Z,5.10
2023-02-01T01:01:09.700Z,5.10
2023-02-01T01:03:39.408Z,5.20
2023-02-01T01:06:12.143Z,5.20
2023-02-01T01:08:40.364Z,5.20
2023-02-01T01:11:17.228Z,5.20
2023-02-01T01:13:44.535Z,5.30
2023-02-01T01:16:12.099Z,5.30
2023-02-01T01:18:39.091Z,5.20
2023-02-01T01:21:07.179Z,5.20
2023-02-01T01:23:34.772Z,5.30
2023-02-01T01:26:01.998Z,5.30
2023-02-01T01:28:28.859Z,5.30
2023-02-01T01:30:56.124Z,5.40
2023-02-01T01:33:23.150Z,5.40
2023-02-01T01:35:50.178Z,5.50
2023-02-01T01:38:17.040Z,5.50
2023-02-01T01:40:52.768Z,5.40
2023-02-01T01:43:23.523Z,5.40
2023-02-01T01:45:52.048Z,5.40
2023-02-01T01:48:27.412Z,5.40
2023-02-01T01:51:22.150Z,5.50
2023-02-01T01:53:58.264Z,5.40
2023-02-01T01:56:28.646Z,5.50
2023-02-01T01:58:56.048Z,5.50
2023-02-01T02:01:23.041Z,5.50
2023-02-01T02:03:51.036Z,5.50
2023-02-01T02:06:41.610Z,5.50
2023-02-01T02:09:08.715Z,5.60
2023-02-01T02:11:35.709Z,5.60
2023-02-01T02:14:04.404Z,5.60
2023-02-01T02:17:18.550Z,5.60
2023-02-01T02:20:05.975Z,5.60
2023-02-01T02:23:21.046Z,5.70
2023-02-01T02:26:24.475Z,5.70
2023-02-01T02:29:24.170Z,5.60
2023-02-01T02:32:09.735Z,5.60
2023-02-01T02:34:43.606Z,5.60
2023-02-01T02:38:06.605Z,5.60
2023-02-01T02:41:02.538Z,5.60
2023-02-01T02:44:16.852Z,5.70
2023-02-01T02:47:09.931Z,5.70
2023-02-01T02:49:43.397Z,5.70
2023-02-01T02:52:38.200Z,5.70
2023-02-01T02:55:07.580Z,5.80
2023-02-01T02:57:58.563Z,5.90
2023-02-01T03:00:50.840Z,5.90
2023-02-01T03:03:36.515Z,5.90
2023-02-01T03:06:03.990Z,5.80
2023-02-01T03:08:32.331Z,5.70
2023-02-01T03:11:17.545Z,5.70
2023-02-01T03:13:57.469Z,5.70
2023-02-01T03:16:29.531Z,5.70
2023-02-01T03:19:07.614Z,5.70
2023-02-01T03:24:41.230Z,5.70
2023-02-01T03:27:38.471Z,5.70
2023-02-01T03:30:27.632Z,5.70
2023-02-01T03:33:01.395Z,5.70
2023-02-01T03:36:00.508Z,5.70
2023-02-01T03:38:59.587Z,5.70
2023-02-01T03:42:02.017Z,5.80
2023-02-01T03:45:10.208Z,5.80
2023-02-01T03:47:42.092Z,5.80
2023-02-01T03:50:16.815Z,5.80
2023-02-01T03:53:15.864Z,5.80
2023-02-01T03:55:43.844Z,5.80
2023-02-01T03:58:22.943Z,5.90
2023-02-01T04:01:00.708Z,5.90
2023-02-01T04:03:28.930Z,5.90
2023-02-01T04:05:56.115Z,5.90
2023-02-01T04:08:24.015Z,5.90
2023-02-01T04:10:51.247Z,5.90
2023-02-01T04:13:18.352Z,5.90
2023-02-01T04:15:46.702Z,5.90
2023-02-01T04:18:13.591Z,5.90
2023-02-01T04:20:40.570Z,5.80
2023-02-01T04:23:07.533Z,5.80
2023-02-01T04:25:34.449Z,5.90
2023-02-01T04:28:01.339Z,5.80
2023-02-01T04:30:28.624Z,5.90
2023-02-01T04:32:55.717Z,5.90
2023-02-01T04:35:23.030Z,5.90
2023-02-01T04:37:49.968Z,5.90
2023-02-01T04:40:17.051Z,5.80
2023-02-01T04:42:43.948Z,5.80
2023-02-01T04:45:11.551Z,5.80
2023-02-01T04:47:38.421Z,5.80
2023-02-01T04:50:06.955Z,5.90
2023-02-01T04:52:34.059Z,5.80
2023-02-01T04:55:01.876Z,5.80
2023-02-01T04:57:28.748Z,5.80
2023-02-01T04:59:55.742Z,5.80
2023-02-01T05:02:22.580Z,5.80
2023-02-01T05:04:49.621Z,5.80
2023-02-01T05:07:16.505Z,5.90
2023-02-01T05:09:43.399Z,5.80
2023-02-01T05:12:30.180Z,5.80
2023-02-01T05:14:57.039Z,5.70
2023-02-01T05:17:23.964Z,5.70
2023-02-01T05:19:50.886Z,5.80
2023-02-01T05:22:17.840Z,5.70
2023-02-01T05:24:45.132Z,5.80
2023-02-01T05:27:12.232Z,5.80
2023-02-01T05:29:39.120Z,5.80
2023-02-01T05:32:21.036Z,5.80
2023-02-01T05:34:49.343Z,5.70
2023-02-01T05:37:16.309Z,5.80
2023-02-01T05:39:43.276Z,5.70
2023-02-01T05:42:10.889Z,5.80
2023-02-01T05:44:37.787Z,5.80
2023-02-01T05:47:05.013Z,5.70
2023-02-01T05:49:31.927Z,5.70
2023-02-01T05:52:00.377Z,5.70
2023-02-01T05:54:27.699Z,5.70
2023-02-01T05:56:54.680Z,5.70
2023-02-01T05:59:21.577Z,5.60
2023-02-01T06:01:48.637Z,5.50
2023-02-01T06:04:15.808Z,5.50
2023-02-01T06:06:42.673Z,5.50
2023-02-01T06:09:09.585Z,5.50
2023-02-01T06:11:36.580Z,5.50
2023-02-01T06:14:03.650Z,5.60
2023-02-01T06:16:30.715Z,5.60
2023-02-01T06:18:57.633Z,5.70
2023-02-01T06:21:24.864Z,5.70
2023-02-01T06:23:52.957Z,5.70
2023-02-01T06:26:20.176Z,5.80
2023-02-01T06:28:47.242Z,5.80
2023-02-01T06:31:14.464Z,5.80
2023-02-01T06:33:41.755Z,5.80
2023-02-01T06:36:11.167Z,5.80
2023-02-01T06:38:38.110Z,5.70
2023-02-01T06:41:05.446Z,5.60
2023-02-01T06:43:33.910Z,5.60
2023-02-01T06:46:02.641Z,5.60
2023-02-01T06:48:29.570Z,5.60
2023-02-01T06:50:56.515Z,5.60
2023-02-01T06:53:23.796Z,5.60
2023-02-01T06:56:03.293Z,5.70
2023-02-01T06:58:34.946Z,5.70
2023-02-01T07:01:10.236Z,5.70
2023-02-01T07:03:37.636Z,5.70
2023-02-01T07:06:05.716Z,5.70
2023-02-01T07:08:34.749Z,5.70
2023-02-01T07:11:09.543Z,5.70
2023-02-01T07:13:36.749Z,5.70
2023-02-01T07:16:05.780Z,5.60
2023-02-01T07:18:33.622Z,5.70
2023-02-01T07:21:00.904Z,5.70
2023-02-01T07:23:28.259Z,5.70
2023-02-01T07:26:00.072Z,5.70
2023-02-01T07:28:29.232Z,5.70
2023-02-01T07:30:56.472Z,5.70
2023-02-01T07:33:28.100Z,5.70
2023-02-01T07:35:55.372Z,5.70
2023-02-01T07:38:23.702Z,5.70
2023-02-01T07:40:51.133Z,5.70
2023-02-01T07:43:17.993Z,5.80
2023-02-01T07:45:51.252Z,5.70
2023-02-01T07:48:18.155Z,5.80
2023-02-01T07:50:45.188Z,5.80
2023-02-01T07:53:12.232Z,5.80
2023-02-01T07:55:40.412Z,5.80
2023-02-01T07:58:07.491Z,5.80
2023-02-01T08:00:52.946Z,5.80
2023-02-01T08:03:19.782Z,5.90
2023-02-01T08:05:46.644Z,5.90
2023-02-01T08:08:14.064Z,5.90
2023-02-01T08:10:40.993Z,5.90
2023-02-01T08:13:08.320Z,5.90
2023-02-01T08:15:35.214Z,5.90
2023-02-01T08:18:03.377Z,5.90
2023-02-01T08:20:30.291Z,5.90
2023-02-01T08:22:57.617Z,5.90
2023-02-01T08:25:25.245Z,5.90
2023-02-01T08:27:52.602Z,5.90
2023-02-01T08:30:19.808Z,6.00
2023-02-01T08:32:47.126Z,5.90
2023-02-01T08:35:14.232Z,6.00
2023-02-01T08:37:41.220Z,6.00
2023-02-01T08:40:09.038Z,6.00
2023-02-01T08:42:54.921Z,6.00
2023-02-01T08:45:31.314Z,6.00
2023-02-01T08:47:58.731Z,6.00
2023-02-01T08:50:26.528Z,6.00
2023-02-01T08:52:54.402Z,6.10
2023-02-01T08:55:21.880Z,6.10
2023-02-01T08:57:48.940Z,6.10
2023-02-01T09:00:18.320Z,6.10
2023-02-01T09:02:45.961Z,6.20
2023-02-01T09:05:13.245Z,6.20
2023-02-01T09:07:40.167Z,6.10
2023-02-01T09:10:07.728Z,6.10
2023-02-01T09:12:35.576Z,6.10
2023-02-01T09:15:03.192Z,6.10
2023-02-01T09:17:31.149Z,6.10
2023-02-01T09:19:58.198Z,6.10
2023-02-01T09:22:25.382Z,6.20
2023-02-01T09:24:55.105Z,6.20
2023-02-01T09:27:22.684Z,6.20
2023-02-01T09:29:53.432Z,6.20
2023-02-01T09:32:25.303Z,6.20
2023-02-01T09:34:53.524Z,6.30
2023-02-01T09:37:20.695Z,6.30
2023-02-01T09:39:47.651Z,6.30
2023-02-01T09:42:53.353Z,6.40
2023-02-01T09:45:58.185Z,6.50
2023-02-01T09:48:31.969Z,6.50
2023-02-01T09:51:00.331Z,6.50
2023-02-01T09:53:41.697Z,6.50
2023-02-01T09:56:19.269Z,6.60
2023-02-01T09:59:02.708Z,6.60
2023-02-01T10:01:30.405Z,6.60
2023-02-01T10:04:05.719Z,6.70
2023-02-01T10:07:27.342Z,6.70
2023-02-01T10:10:40.434Z,6.70
2023-02-01T10:13:39.558Z,6.90
2023-02-01T10:16:54.289Z,6.80
2023-02-01T10:20:06.466Z,6.80
2023-02-01T10:23:33.016Z,6.80
2023-02-01T10:26:05.219Z,6.80
2023-02-01T10:28:37.840Z,6.90
2023-02-01T10:31:06.452Z,6.80
2023-02-01T10:33:42.986Z,6.90
2023-02-01T10:36:38.185Z,6.90
2023-02-01T10:39:07.673Z,6.90
2023-02-01T10:41:37.318Z,6.90
2023-02-01T10:44:07.589Z,6.90
2023-02-01T10:46:35.158Z,6.90
2023-02-01T10:49:05.870Z,6.90
2023-02-01T10:51:46.851Z,6.90
2023-02-01T10:54:21.998Z,6.90
2023-02-01T10:56:50.301Z,6.80
2023-02-01T10:59:25.030Z,6.80
2023-02-01T11:02:03.472Z,6.70
2023-02-01T11:04:36.770Z,6.70
2023-02-01T11:07:23.922Z,6.60
2023-02-01T11:09:55.965Z,6.60
2023-02-01T11:12:39.011Z,6.70
2023-02-01T11:15:38.159Z,6.60
2023-02-01T11:18:26.265Z,6.70
2023-02-01T11:20:54.011Z,6.60
2023-02-01T11:23:23.882Z,6.60
2023-02-01T11:25:54.782Z,6.60
2023-02-01T11:28:25.726Z,6.60
2023-02-01T11:30:56.941Z,6.60
2023-02-01T11:33:36.228Z,6.60
2023-02-01T11:36:32.571Z,6.60
2023-02-01T11:39:35.289Z,6.60
2023-02-01T11:42:17.566Z,6.60
2023-02-01T11:44:46.992Z,6.70
2023-02-01T11:47:34.573Z,6.80
2023-02-01T11:50:14.545Z,6.80
2023-02-01T11:53:21.248Z,6.80
2023-02-01T11:55:58.154Z,6.80
2023-02-01T11:58:49.498Z,6.80
2023-02-01T12:02:00.730Z,6.90
2023-02-01T12:05:04.207Z,7.00
2023-02-01T12:08:29.630Z,6.90
2023-02-01T12:11:41.250Z,6.90
2023-02-01T12:14:54.540Z,6.80
2023-02-01T12:18:06.355Z,6.70
2023-02-01T12:21:07.710Z,6.50
2023-02-01T12:24:08.670Z,6.20
2023-02-01T12:27:13.772Z,6.20
2023-02-01T12:30:16.931Z,6.10
2023-02-01T12:33:15.797Z,6.00
2023-02-01T12:35:51.222Z,6.00
2023-02-01T12:38:34.192Z,6.00
2023-02-01T12:41:33.938Z,6.00
2023-02-01T12:44:12.081Z,5.90
2023-02-01T12:46:46.310Z,5.90
2023-02-01T12:49:21.461Z,5.90
2023-02-01T12:51:51.414Z,5.80
2023-02-01T12:54:42.767Z,5.90
2023-02-01T12:57:17.448Z,5.80
2023-02-01T12:59:52.373Z,5.90
2023-02-01T13:02:57.890Z,5.90
2023-02-01T13:06:17.634Z,5.90
2023-02-01T13:09:08.694Z,5.90
2023-02-01T13:11:39.118Z,5.90
2023-02-01T13:14:49.371Z,5.80
2023-02-01T13:17:29.375Z,5.80
2023-02-01T13:20:17.110Z,5.80
2023-02-01T13:22:55.981Z,5.80
2023-02-01T13:25:36.512Z,5.80
2023-02-01T13:28:11.877Z,5.80
2023-02-01T13:31:20.766Z,5.90
2023-02-01T13:33:59.945Z,5.90
2023-02-01T13:36:59.259Z,6.00
2023-02-01T13:39:44.476Z,6.10
2023-02-01T13:42:24.960Z,6.10
2023-02-01T13:44:58.814Z,6.20
2023-02-01T13:47:41.838Z,6.30
2023-02-01T13:50:35.277Z,6.30
2023-02-01T13:53:24.809Z,6.50
2023-02-01T13:56:19.084Z,6.50
2023-02-01T13:58:48.393Z,6.60
2023-02-01T14:01:44.371Z,6.70
2023-02-01T14:04:48.135Z,6.70
2023-02-01T14:07:24.044Z,6.70
2023-02-01T14:09:51.137Z,6.80
2023-02-01T14:12:44.651Z,6.80
2023-02-01T14:15:29.843Z,6.80
2023-02-01T14:17:57.151Z,6.90
2023-02-01T14:21:22.161Z,6.90
2023-02-01T14:24:23.519Z,6.90
2023-02-01T14:26:53.413Z,7.00
2023-02-01T14:29:37.608Z,7.00
2023-02-01T14:32:18.305Z,6.90
2023-02-01T14:34:57.386Z,6.90
2023-02-01T14:37:26.781Z,6.90
2023-02-01T14:40:03.197Z,6.80
2023-02-01T14:42:45.489Z,6.80
2023-02-01T14:45:44.534Z,6.70
2023-02-01T14:48:11.903Z,6.60
2023-02-01T14:50:45.418Z,6.60
2023-02-01T14:53:15.013Z,6.70
2023-02-01T14:55:59.861Z,6.70
2023-02-01T14:58:43.460Z,6.70
2023-02-01T15:01:26.036Z,6.70
2023-02-01T15:04:12.399Z,6.60
2023-02-01T15:06:54.630Z,6.50
2023-02-01T15:09:33.674Z,6.40
2023-02-01T15:12:28.643Z,6.40
2023-02-01T15:15:37.415Z,6.50
2023-02-01T15:18:04.861Z,6.60
2023-02-01T15:20:33.963Z,6.70
2023-02-01T15:23:17.080Z,6.70
2023-02-01T15:25:47.790Z,6.80
2023-02-01T15:28:16.270Z,6.70
2023-02-01T15:30:59.174Z,6.80
2023-02-01T15:33:28.674Z,6.80
2023-02-01T15:36:14.000Z,6.80
2023-02-01T15:38:43.219Z,6.80
2023-02-01T15:41:19.654Z,6.90
2023-02-01T15:44:19.705Z,6.80
2023-02-01T15:46:50.225Z,6.80
2023-02-01T15:49:41.134Z,6.80
2023-02-01T15:52:38.280Z,6.80
2023-02-01T15:55:10.097Z,6.80
2023-02-01T15:57:41.335Z,6.80
2023-02-01T16:00:22.087Z,6.80
2023-02-01T16:03:07.189Z,6.80
2023-02-01T16:05:47.066Z,6.90
2023-02-01T16:08:22.901Z,6.80
2023-02-01T16:10:53.662Z,6.80
2023-02-01T16:13:21.876Z,6.70
2023-02-01T16:15:49.486Z,6.60
2023-02-01T16:18:18.901Z,6.60
2023-02-01T16:20:48.712Z,6.50
2023-02-01T16:23:15.898Z,6.50
2023-02-01T16:25:43.303Z,6.60
2023-02-01T16:28:10.510Z,6.50
2023-02-01T16:30:37.963Z,6.40
2023-02-01T16:33:08.052Z,6.20
2023-02-01T16:35:37.881Z,6.20
2023-02-01T16:38:09.817Z,6.10
2023-02-01T16:40:36.826Z,6.10
2023-02-01T16:43:09.369Z,6.10
2023-02-01T16:45:37.613Z,6.10
2023-02-01T16:48:06.330Z,6.00
2023-02-01T16:50:34.086Z,6.00
2023-02-01T16:53:02.622Z,6.10
2023-02-01T16:55:30.356Z,6.00
2023-02-01T16:57:57.280Z,6.00
2023-02-01T17:00:26.301Z,5.90
2023-02-01T17:02:54.410Z,5.90
2023-02-01T17:05:22.258Z,5.90
2023-02-01T17:07:49.731Z,6.00
2023-02-01T17:10:33.474Z,5.90
2023-02-01T17:13:01.815Z,6.00
2023-02-01T17:15:35.075Z,5.90
2023-02-01T17:18:03.026Z,5.90
2023-02-01T17:20:33.151Z,5.80
2023-02-01T17:23:00.707Z,5.70
2023-02-01T17:25:31.901Z,5.70
2023-02-01T17:27:59.134Z,5.70
2023-02-01T17:30:26.433Z,5.60
2023-02-01T17:32:55.910Z,5.40
2023-02-01T17:35:26.241Z,5.30
2023-02-01T17:37:54.014Z,5.30
2023-02-01T17:40:21.067Z,5.30
2023-02-01T17:42:48.763Z,5.20
2023-02-01T17:45:34.651Z,5.20
2023-02-01T17:48:01.654Z,5.10
2023-02-01T17:50:32.008Z,5.10
2023-02-01T17:52:59.137Z,5.10
2023-02-01T17:55:27.626Z,5.10
2023-02-01T17:57:54.870Z,5.10
2023-02-01T18:00:22.377Z,5.10
2023-02-01T18:02:49.477Z,5.10
2023-02-01T18:05:27.242Z,5.00
2023-02-01T18:07:54.227Z,5.00
2023-02-01T18:10:21.075Z,5.00
2023-02-01T18:12:48.195Z,5.00
2023-02-01T18:15:21.646Z,5.00
2023-02-01T18:17:49.213Z,5.10
2023-02-01T18:20:18.873Z,5.00
2023-02-01T18:22:48.739Z,5.10
2023-02-01T18:25:21.963Z,5.10
2023-02-01T18:27:52.364Z,5.10
2023-02-01T18:30:24.253Z,5.10
2023-02-01T18:32:51.880Z,5.20
2023-02-01T18:35:20.429Z,5.20
2023-02-01T18:37:48.235Z,5.30
2023-02-01T18:40:17.252Z,5.30
2023-02-01T18:42:44.898Z,5.30
2023-02-01T18:45:26.624Z,5.30
2023-02-01T18:47:53.937Z,5.30
2023-02-01T18:50:21.071Z,5.30
2023-02-01T18:52:48.462Z,5.30
2023-02-01T18:55:15.553Z,5.30
2023-02-01T18:57:42.762Z,5.40
2023-02-01T19:00:11.492Z,5.40
2023-02-01T19:02:39.430Z,5.40
2023-02-01T19:05:10.706Z,5.40
2023-02-01T19:07:38.822Z,5.50
2023-02-01T19:10:07.680Z,5.50
2023-02-01T19:12:35.774Z,5.40
2023-02-01T19:15:03.744Z,5.30
2023-02-01T19:17:30.854Z,5.10
2023-02-01T19:20:00.460Z,4.90
2023-02-01T19:22:28.986Z,4.80
2023-02-01T19:24:55.882Z,4.70
2023-02-01T19:27:22.726Z,4.60
2023-02-01T19:29:50.115Z,4.60
2023-02-01T19:32:17.602Z,4.60
2023-02-01T19:34:44.582Z,4.50
2023-02-01T19:37:11.775Z,4.40
2023-02-01T19:39:40.141Z,4.40
2023-02-01T19:42:07.821Z,4.40
2023-02-01T19:44:35.783Z,4.30
2023-02-01T19:47:02.863Z,4.30
2023-02-01T19:49:30.083Z,4.30
2023-02-01T19:51:57.318Z,4.30
2023-02-01T19:54:24.453Z,4.30
2023-02-01T19:56:51.428Z,4.30
2023-02-01T19:59:19.534Z,4.20
2023-02-01T20:01:46.927Z,4.20
2023-02-01T20:04:19.064Z,4.20
2023-02-01T20:06:49.756Z,4.20
2023-02-01T20:09:22.728Z,4.20
2023-02-01T20:11:50.870Z,4.20
2023-02-01T20:14:17.764Z,4.10
2023-02-01T20:16:44.751Z,4.20
2023-02-01T20:19:12.045Z,4.20
2023-02-01T20:21:42.059Z,4.20
2023-02-01T20:24:12.184Z,4.20
2023-02-01T20:26:40.429Z,4.20
2023-02-01T20:29:07.649Z,4.10
2023-02-01T20:31:34.965Z,4.20
2023-02-01T20:34:02.567Z,4.20
2023-02-01T20:36:31.052Z,4.20
2023-02-01T20:38:58.531Z,4.30
2023-02-01T20:41:26.528Z,4.40
2023-02-01T20:43:53.975Z,4.50
2023-02-01T20:46:21.384Z,4.60
2023-02-01T20:48:49.813Z,4.70
2023-02-01T20:51:19.737Z,4.80
2023-02-01T20:53:48.607Z,4.90
2023-02-01T20:56:16.099Z,5.00
2023-02-01T20:58:43.926Z,5.00
2023-02-01T21:01:11.811Z,5.10
2023-02-01T21:03:39.211Z,5.20
2023-02-01T21:06:07.481Z,5.20
2023-02-01T21:08:35.033Z,5.20
2023-02-01T21:11:10.544Z,5.30
2023-02-01T21:13:44.190Z,5.30
2023-02-01T21:16:12.984Z,5.30
2023-02-01T21:18:40.401Z,5.30
2023-02-01T21:21:10.225Z,5.30
2023-02-01T21:23:47.802Z,5.40
2023-02-01T21:26:24.125Z,5.40
2023-02-01T21:28:53.153Z,5.40
2023-02-01T21:31:22.477Z,5.50
2023-02-01T21:33:49.923Z,5.50
2023-02-01T21:36:20.670Z,5.60
2023-02-01T21:38:53.300Z,5.60
2023-02-01T21:41:41.952Z,5.60
2023-02-01T21:44:09.819Z,5.60
2023-02-01T21:46:36.829Z,5.60
2023-02-01T21:49:06.287Z,5.60
2023-02-01T21:51:35.619Z,5.60
2023-02-01T21:54:02.562Z,5.60
2023-02-01T21:56:29.478Z,5.60
2023-02-01T21:58:56.488Z,5.60
2023-02-01T22:01:23.958Z,5.50
2023-02-01T22:03:50.906Z,5.50
2023-02-01T22:06:30.295Z,5.50
2023-02-01T22:08:57.463Z,5.40
2023-02-01T22:11:24.810Z,5.40
2023-02-01T22:13:52.013Z,5.30
2023-02-01T22:16:21.549Z,5.30
2023-02-01T22:18:50.017Z,5.30
2023-02-01T22:21:17.483Z,5.30
2023-02-01T22:23:44.471Z,5.30
2023-02-01T22:26:16.324Z,5.30
2023-02-01T22:28:44.581Z,5.30
2023-02-01T22:31:11.738Z,5.30
2023-02-01T22:33:39.153Z,5.30
2023-02-01T22:36:07.936Z,5.30
2023-02-01T22:38:36.001Z,5.30
2023-02-01T22:41:05.696Z,5.30
2023-02-01T22:43:33.360Z,5.40
2023-02-01T22:46:05.439Z,5.40
2023-02-01T22:48:36.518Z,5.40
2023-02-01T22:51:04.247Z,5.40
2023-02-01T22:53:31.997Z,5.50
2023-02-01T22:56:07.084Z,5.60
2023-02-01T22:58:37.326Z,5.70
2023-02-01T23:01:12.097Z,5.70
2023-02-01T23:03:40.092Z,5.80
2023-02-01T23:06:08.004Z,5.70
2023-02-01T23:08:35.580Z,5.80
2023-02-01T23:11:09.067Z,5.70
2023-02-01T23:13:36.901Z,5.70
2023-02-01T23:16:13.845Z,5.70
2023-02-01T23:18:41.391Z,5.70
2023-02-01T23:21:11.470Z,5.70
2023-02-01T23:23:38.346Z,5.70
2023-02-01T23:26:06.273Z,5.70
2023-02-01T23:28:33.588Z,5.70
2023-02-01T23:31:07.500Z,5.70
2023-02-01T23:33:34.668Z,5.70
2023-02-01T23:36:04.288Z,5.60
2023-02-01T23:38:31.507Z,5.70
2023-02-01T23:41:00.873Z,5.70
2023-02-01T23:43:47.165Z,5.60
2023-02-01T23:46:15.902Z,5.60
2023-02-01T23:48:44.356Z,5.70
2023-02-01T23:51:11.956Z,5.70
2023-02-01T23:53:39.086Z,5.70
2023-02-01T23:56:06.881Z,5.80
2023-02-01T23:58:34.407Z,5.90
